sensor_id;sensor_type;location;lat;lon;timestamp;P1;durP1;ratioP1;P2;durP2;ratioP2
51814;SDS011;37874;53.158;6.766;2023-01-29T00:01:07;3.63;;;1.40;;
51814;SDS011;37874;53.158;6.766;2023-01-29T00:03:34;2.90;;;1.50;;
51814;SDS011;37874;53.158;6.766;2023-01-29T00:06:03;2.72;;;1.40;;
51814;SDS011;37874;53.158;6.766;2023-01-29T00:08:37;2.78;;;1.63;;
51814;SDS011;37874;53.158;6.766;2023-01-29T00:11:03;3.00;;;1.48;;
51814;SDS011;37874;53.158;6.766;2023-01-29T00:13:31;2.70;;;1.33;;
51814;SDS011;37874;53.158;6.766;2023-01-29T00:15:58;2.28;;;1.25;;
51814;SDS011;37874;53.158;6.766;2023-01-29T00:18:24;2.42;;;1.25;;
51814;SDS011;37874;53.158;6.766;2023-01-29T00:20:51;3.10;;;1.60;;
51814;SDS011;37874;53.158;6.766;2023-01-29T00:23:17;3.50;;;1.67;;
51814;SDS011;37874;53.158;6.766;2023-01-29T00:25:43;4.35;;;1.52;;
51814;SDS011;37874;53.158;6.766;2023-01-29T00:28:09;2.60;;;1.52;;
51814;SDS011;37874;53.158;6.766;2023-01-29T00:30:35;3.53;;;1.63;;
51814;SDS011;37874;53.158;6.766;2023-01-29T00:33:01;1.88;;;1.20;;
51814;SDS011;37874;53.158;6.766;2023-01-29T00:35:27;2.13;;;1.10;;
51814;SDS011;37874;53.158;6.766;2023-01-29T00:37:56;2.90;;;1.55;;
51814;SDS011;37874;53.158;6.766;2023-01-29T00:40:23;2.47;;;1.50;;
51814;SDS011;37874;53.158;6.766;2023-01-29T00:42:49;3.20;;;1.38;;
51814;SDS011;37874;53.158;6.766;2023-01-29T00:45:33;2.60;;;1.35;;
51814;SDS011;37874;53.158;6.766;2023-01-29T00:48:01;3.03;;;1.40;;
51814;SDS011;37874;53.158;6.766;2023-01-29T00:50:27;4.68;;;1.58;;
51814;SDS011;37874;53.158;6.766;2023-01-29T00:52:53;2.35;;;1.25;;
51814;SDS011;37874;53.158;6.766;2023-01-29T00:55:19;2.83;;;1.50;;
51814;SDS011;37874;53.158;6.766;2023-01-29T00:57:45;2.95;;;1.25;;
51814;SDS011;37874;53.158;6.766;2023-01-29T01:00:12;2.03;;;1.10;;
51814;SDS011;37874;53.158;6.766;2023-01-29T01:02:39;3.13;;;1.60;;
51814;SDS011;37874;53.158;6.766;2023-01-29T01:05:24;2.90;;;1.35;;
51814;SDS011;37874;53.158;6.766;2023-01-29T01:07:50;2.38;;;1.30;;
51814;SDS011;37874;53.158;6.766;2023-01-29T01:10:28;2.58;;;1.40;;
51814;SDS011;37874;53.158;6.766;2023-01-29T01:12:56;2.25;;;1.25;;
51814;SDS011;37874;53.158;6.766;2023-01-29T01:15:28;2.80;;;1.40;;
51814;SDS011;37874;53.158;6.766;2023-01-29T01:17:57;2.35;;;1.55;;
51814;SDS011;37874;53.158;6.766;2023-01-29T01:20:24;2.58;;;1.30;;
51814;SDS011;37874;53.158;6.766;2023-01-29T01:22:52;3.70;;;1.50;;
51814;SDS011;37874;53.158;6.766;2023-01-29T01:25:18;2.17;;;1.25;;
51814;SDS011;37874;53.158;6.766;2023-01-29T01:27:45;2.53;;;1.40;;
51814;SDS011;37874;53.158;6.766;2023-01-29T01:30:12;3.10;;;1.50;;
51814;SDS011;37874;53.158;6.766;2023-01-29T01:32:39;2.58;;;1.55;;
51814;SDS011;37874;53.158;6.766;2023-01-29T01:35:05;2.30;;;1.40;;
51814;SDS011;37874;53.158;6.766;2023-01-29T01:37:32;2.50;;;1.23;;
51814;SDS011;37874;53.158;6.766;2023-01-29T01:40:01;3.20;;;1.55;;
51814;SDS011;37874;53.158;6.766;2023-01-29T01:42:29;2.40;;;1.30;;
51814;SDS011;37874;53.158;6.766;2023-01-29T01:44:59;3.55;;;1.70;;
51814;SDS011;37874;53.158;6.766;2023-01-29T01:49:59;3.28;;;1.88;;
51814;SDS011;37874;53.158;6.766;2023-01-29T01:52:34;2.53;;;1.67;;
51814;SDS011;37874;53.158;6.766;2023-01-29T01:55:03;3.25;;;1.50;;
51814;SDS011;37874;53.158;6.766;2023-01-29T01:57:30;1.90;;;1.20;;
51814;SDS011;37874;53.158;6.766;2023-01-29T01:59:58;2.97;;;1.60;;
51814;SDS011;37874;53.158;6.766;2023-01-29T02:02:34;2.78;;;1.48;;
51814;SDS011;37874;53.158;6.766;2023-01-29T02:05:21;3.38;;;1.60;;
51814;SDS011;37874;53.158;6.766;2023-01-29T02:08:05;3.38;;;1.50;;
51814;SDS011;37874;53.158;6.766;2023-01-29T02:10:50;3.70;;;1.67;;
51814;SDS011;37874;53.158;6.766;2023-01-29T02:13:16;3.03;;;1.63;;
51814;SDS011;37874;53.158;6.766;2023-01-29T02:15:43;2.70;;;1.58;;
51814;SDS011;37874;53.158;6.766;2023-01-29T02:18:12;2.70;;;1.50;;
51814;SDS011;37874;53.158;6.766;2023-01-29T02:20:45;2.30;;;1.42;;
51814;SDS011;37874;53.158;6.766;2023-01-29T02:26:14;2.30;;;1.60;;
51814;SDS011;37874;53.158;6.766;2023-01-29T02:28:56;3.33;;;1.40;;
51814;SDS011;37874;53.158;6.766;2023-01-29T02:31:49;2.80;;;1.50;;
51814;SDS011;37874;53.158;6.766;2023-01-29T02:34:41;3.20;;;2.17;;
51814;SDS011;37874;53.158;6.766;2023-01-29T02:37:36;3.67;;;1.42;;
51814;SDS011;37874;53.158;6.766;2023-01-29T02:42:52;2.60;;;1.50;;
51814;SDS011;37874;53.158;6.766;2023-01-29T02:45:30;2.90;;;1.80;;
51814;SDS011;37874;53.158;6.766;2023-01-29T02:48:10;2.80;;;1.90;;
51814;SDS011;37874;53.158;6.766;2023-01-29T02:50:56;2.45;;;1.63;;
51814;SDS011;37874;53.158;6.766;2023-01-29T02:53:34;3.08;;;1.70;;
51814;SDS011;37874;53.158;6.766;2023-01-29T02:56:36;4.72;;;1.60;;
51814;SDS011;37874;53.158;6.766;2023-01-29T02:59:17;2.38;;;1.50;;
51814;SDS011;37874;53.158;6.766;2023-01-29T03:01:49;2.90;;;1.85;;
51814;SDS011;37874;53.158;6.766;2023-01-29T03:04:23;2.30;;;1.60;;
51814;SDS011;37874;53.158;6.766;2023-01-29T03:06:54;3.20;;;1.58;;
51814;SDS011;37874;53.158;6.766;2023-01-29T03:09:35;2.60;;;1.67;;
51814;SDS011;37874;53.158;6.766;2023-01-29T03:12:12;3.17;;;1.70;;
51814;SDS011;37874;53.158;6.766;2023-01-29T03:14:52;2.40;;;1.45;;
51814;SDS011;37874;53.158;6.766;2023-01-29T03:17:57;3.08;;;1.90;;
51814;SDS011;37874;53.158;6.766;2023-01-29T03:20:30;2.72;;;1.67;;
51814;SDS011;37874;53.158;6.766;2023-01-29T03:23:07;2.17;;;1.40;;
51814;SDS011;37874;53.158;6.766;2023-01-29T03:25:38;2.53;;;1.27;;
51814;SDS011;37874;53.158;6.766;2023-01-29T03:28:25;3.38;;;1.98;;
51814;SDS011;37874;53.158;6.766;2023-01-29T03:31:12;3.78;;;1.90;;
51814;SDS011;37874;53.158;6.766;2023-01-29T03:34:00;3.33;;;1.67;;
51814;SDS011;37874;53.158;6.766;2023-01-29T03:36:38;3.45;;;2.10;;
51814;SDS011;37874;53.158;6.766;2023-01-29T03:39:09;2.92;;;2.08;;
51814;SDS011;37874;53.158;6.766;2023-01-29T03:41:41;2.67;;;1.60;;
51814;SDS011;37874;53.158;6.766;2023-01-29T03:44:32;2.70;;;1.63;;
51814;SDS011;37874;53.158;6.766;2023-01-29T03:47:20;4.22;;;1.70;;
51814;SDS011;37874;53.158;6.766;2023-01-29T03:49:53;3.30;;;1.70;;
51814;SDS011;37874;53.158;6.766;2023-01-29T03:57:44;2.67;;;1.77;;
51814;SDS011;37874;53.158;6.766;2023-01-29T04:00:33;3.10;;;2.20;;
51814;SDS011;37874;53.158;6.766;2023-01-29T04:03:05;3.70;;;2.13;;
51814;SDS011;37874;53.158;6.766;2023-01-29T04:05:54;3.03;;;1.90;;
51814;SDS011;37874;53.158;6.766;2023-01-29T04:11:29;3.47;;;2.20;;
51814;SDS011;37874;53.158;6.766;2023-01-29T04:13:57;2.38;;;1.73;;
51814;SDS011;37874;53.158;6.766;2023-01-29T04:16:27;4.53;;;2.40;;
51814;SDS011;37874;53.158;6.766;2023-01-29T04:19:00;3.88;;;2.45;;
51814;SDS011;37874;53.158;6.766;2023-01-29T04:21:26;3.70;;;2.63;;
51814;SDS011;37874;53.158;6.766;2023-01-29T04:23:53;3.20;;;2.15;;
51814;SDS011;37874;53.158;6.766;2023-01-29T04:40:25;3.30;;;2.13;;
51814;SDS011;37874;53.158;6.766;2023-01-29T04:46:20;2.88;;;2.05;;
51814;SDS011;37874;53.158;6.766;2023-01-29T04:49:00;3.25;;;2.42;;
51814;SDS011;37874;53.158;6.766;2023-01-29T04:51:48;2.75;;;2.00;;
51814;SDS011;37874;53.158;6.766;2023-01-29T05:00:32;3.05;;;1.70;;
51814;SDS011;37874;53.158;6.766;2023-01-29T05:03:00;3.70;;;2.15;;
51814;SDS011;37874;53.158;6.766;2023-01-29T05:05:26;3.95;;;1.80;;
51814;SDS011;37874;53.158;6.766;2023-01-29T05:07:53;3.08;;;2.20;;
51814;SDS011;37874;53.158;6.766;2023-01-29T05:10:20;2.90;;;1.95;;
51814;SDS011;37874;53.158;6.766;2023-01-29T05:12:50;5.43;;;2.03;;
51814;SDS011;37874;53.158;6.766;2023-01-29T05:15:23;3.33;;;2.17;;
51814;SDS011;37874;53.158;6.766;2023-01-29T05:17:54;2.40;;;1.70;;
51814;SDS011;37874;53.158;6.766;2023-01-29T05:20:25;5.22;;;2.63;;
51814;SDS011;37874;53.158;6.766;2023-01-29T05:22:51;2.80;;;1.77;;
51814;SDS011;37874;53.158;6.766;2023-01-29T05:25:21;2.90;;;2.30;;
51814;SDS011;37874;53.158;6.766;2023-01-29T05:27:50;3.15;;;1.60;;
51814;SDS011;37874;53.158;6.766;2023-01-29T05:30:29;3.22;;;2.20;;
51814;SDS011;37874;53.158;6.766;2023-01-29T05:32:56;3.78;;;2.13;;
51814;SDS011;37874;53.158;6.766;2023-01-29T05:35:22;2.35;;;1.60;;
51814;SDS011;37874;53.158;6.766;2023-01-29T05:37:47;2.72;;;1.85;;
51814;SDS011;37874;53.158;6.766;2023-01-29T05:40:13;2.65;;;2.03;;
51814;SDS011;37874;53.158;6.766;2023-01-29T05:42:38;2.65;;;1.60;;
51814;SDS011;37874;53.158;6.766;2023-01-29T05:45:04;2.80;;;2.13;;
51814;SDS011;37874;53.158;6.766;2023-01-29T05:47:30;3.05;;;1.80;;
51814;SDS011;37874;53.158;6.766;2023-01-29T05:49:55;3.22;;;1.67;;
51814;SDS011;37874;53.158;6.766;2023-01-29T05:52:21;2.97;;;2.10;;
51814;SDS011;37874;53.158;6.766;2023-01-29T05:54:47;2.88;;;2.00;;
51814;SDS011;37874;53.158;6.766;2023-01-29T05:57:13;2.65;;;1.80;;
51814;SDS011;37874;53.158;6.766;2023-01-29T05:59:39;2.00;;;1.50;;
51814;SDS011;37874;53.158;6.766;2023-01-29T06:02:04;3.13;;;2.25;;
51814;SDS011;37874;53.158;6.766;2023-01-29T06:04:30;3.17;;;2.00;;
51814;SDS011;37874;53.158;6.766;2023-01-29T06:06:55;2.75;;;1.83;;
51814;SDS011;37874;53.158;6.766;2023-01-29T06:09:21;3.40;;;1.80;;
51814;SDS011;37874;53.158;6.766;2023-01-29T06:11:47;3.00;;;1.90;;
51814;SDS011;37874;53.158;6.766;2023-01-29T06:14:12;2.75;;;1.83;;
51814;SDS011;37874;53.158;6.766;2023-01-29T06:16:38;2.90;;;1.80;;
51814;SDS011;37874;53.158;6.766;2023-01-29T06:19:03;2.47;;;1.60;;
51814;SDS011;37874;53.158;6.766;2023-01-29T06:21:29;3.00;;;2.00;;
51814;SDS011;37874;53.158;6.766;2023-01-29T06:23:55;3.10;;;2.22;;
51814;SDS011;37874;53.158;6.766;2023-01-29T06:26:20;3.47;;;2.40;;
51814;SDS011;37874;53.158;6.766;2023-01-29T06:28:49;3.08;;;2.17;;
51814;SDS011;37874;53.158;6.766;2023-01-29T06:31:15;2.90;;;2.10;;
51814;SDS011;37874;53.158;6.766;2023-01-29T06:33:40;3.30;;;2.45;;
51814;SDS011;37874;53.158;6.766;2023-01-29T06:36:06;3.78;;;2.63;;
51814;SDS011;37874;53.158;6.766;2023-01-29T06:38:32;3.22;;;2.28;;
51814;SDS011;37874;53.158;6.766;2023-01-29T06:40:58;5.90;;;3.00;;
51814;SDS011;37874;53.158;6.766;2023-01-29T06:43:24;4.25;;;2.17;;
51814;SDS011;37874;53.158;6.766;2023-01-29T06:45:53;5.18;;;2.75;;
51814;SDS011;37874;53.158;6.766;2023-01-29T06:48:21;4.00;;;2.30;;
51814;SDS011;37874;53.158;6.766;2023-01-29T06:50:50;3.08;;;2.33;;
51814;SDS011;37874;53.158;6.766;2023-01-29T06:53:18;4.75;;;2.50;;
51814;SDS011;37874;53.158;6.766;2023-01-29T06:55:50;4.15;;;2.90;;
51814;SDS011;37874;53.158;6.766;2023-01-29T06:58:17;4.63;;;2.55;;
51814;SDS011;37874;53.158;6.766;2023-01-29T07:00:43;4.15;;;2.17;;
51814;SDS011;37874;53.158;6.766;2023-01-29T07:03:08;3.03;;;2.30;;
51814;SDS011;37874;53.158;6.766;2023-01-29T07:05:35;3.58;;;2.05;;
51814;SDS011;37874;53.158;6.766;2023-01-29T07:08:01;2.50;;;1.95;;
51814;SDS011;37874;53.158;6.766;2023-01-29T07:10:26;4.85;;;2.63;;
51814;SDS011;37874;53.158;6.766;2023-01-29T07:12:52;5.95;;;2.80;;
51814;SDS011;37874;53.158;6.766;2023-01-29T07:15:17;4.05;;;2.50;;
51814;SDS011;37874;53.158;6.766;2023-01-29T07:17:54;5.50;;;3.33;;
51814;SDS011;37874;53.158;6.766;2023-01-29T07:20:21;3.63;;;2.95;;
51814;SDS011;37874;53.158;6.766;2023-01-29T07:22:47;4.07;;;2.85;;
51814;SDS011;37874;53.158;6.766;2023-01-29T07:25:13;3.67;;;2.35;;
51814;SDS011;37874;53.158;6.766;2023-01-29T07:27:39;3.40;;;2.42;;
51814;SDS011;37874;53.158;6.766;2023-01-29T07:30:04;4.07;;;2.80;;
51814;SDS011;37874;53.158;6.766;2023-01-29T07:32:30;5.00;;;3.45;;
51814;SDS011;37874;53.158;6.766;2023-01-29T07:34:56;3.80;;;2.70;;
51814;SDS011;37874;53.158;6.766;2023-01-29T07:37:21;2.95;;;2.30;;
51814;SDS011;37874;53.158;6.766;2023-01-29T07:39:47;3.30;;;2.10;;
51814;SDS011;37874;53.158;6.766;2023-01-29T07:42:13;2.90;;;2.10;;
51814;SDS011;37874;53.158;6.766;2023-01-29T07:44:38;3.88;;;2.80;;
51814;SDS011;37874;53.158;6.766;2023-01-29T07:47:04;3.67;;;2.70;;
51814;SDS011;37874;53.158;6.766;2023-01-29T07:49:29;3.33;;;2.40;;
51814;SDS011;37874;53.158;6.766;2023-01-29T07:51:55;3.08;;;2.00;;
51814;SDS011;37874;53.158;6.766;2023-01-29T07:54:21;2.80;;;1.90;;
51814;SDS011;37874;53.158;6.766;2023-01-29T07:56:46;3.10;;;2.03;;
51814;SDS011;37874;53.158;6.766;2023-01-29T07:59:12;3.47;;;2.33;;
51814;SDS011;37874;53.158;6.766;2023-01-29T08:01:37;3.85;;;2.25;;
51814;SDS011;37874;53.158;6.766;2023-01-29T08:04:03;3.28;;;2.28;;
51814;SDS011;37874;53.158;6.766;2023-01-29T08:06:29;5.05;;;2.50;;
51814;SDS011;37874;53.158;6.766;2023-01-29T08:08:54;3.38;;;2.30;;
51814;SDS011;37874;53.158;6.766;2023-01-29T08:11:21;4.47;;;2.38;;
51814;SDS011;37874;53.158;6.766;2023-01-29T08:13:47;4.38;;;2.00;;
51814;SDS011;37874;53.158;6.766;2023-01-29T08:16:12;3.35;;;2.13;;
51814;SDS011;37874;53.158;6.766;2023-01-29T08:18:38;3.95;;;2.10;;
51814;SDS011;37874;53.158;6.766;2023-01-29T08:21:08;3.60;;;1.90;;
51814;SDS011;37874;53.158;6.766;2023-01-29T08:23:34;4.03;;;2.05;;
51814;SDS011;37874;53.158;6.766;2023-01-29T08:26:01;4.32;;;2.53;;
51814;SDS011;37874;53.158;6.766;2023-01-29T08:28:27;2.80;;;1.80;;
51814;SDS011;37874;53.158;6.766;2023-01-29T08:30:52;4.13;;;2.83;;
51814;SDS011;37874;53.158;6.766;2023-01-29T08:33:18;4.60;;;2.30;;
51814;SDS011;37874;53.158;6.766;2023-01-29T08:35:48;3.28;;;1.92;;
51814;SDS011;37874;53.158;6.766;2023-01-29T08:38:14;5.25;;;2.65;;
51814;SDS011;37874;53.158;6.766;2023-01-29T08:40:40;3.47;;;2.20;;
51814;SDS011;37874;53.158;6.766;2023-01-29T08:43:06;3.75;;;2.38;;
51814;SDS011;37874;53.158;6.766;2023-01-29T08:45:33;4.05;;;2.95;;
51814;SDS011;37874;53.158;6.766;2023-01-29T08:48:01;3.60;;;1.92;;
51814;SDS011;37874;53.158;6.766;2023-01-29T08:50:26;5.05;;;2.90;;
51814;SDS011;37874;53.158;6.766;2023-01-29T08:52:58;4.07;;;3.15;;
51814;SDS011;37874;53.158;6.766;2023-01-29T08:55:24;4.95;;;2.88;;
51814;SDS011;37874;53.158;6.766;2023-01-29T08:57:50;4.18;;;2.40;;
51814;SDS011;37874;53.158;6.766;2023-01-29T09:00:16;4.22;;;1.90;;
51814;SDS011;37874;53.158;6.766;2023-01-29T09:02:42;3.97;;;2.50;;
51814;SDS011;37874;53.158;6.766;2023-01-29T09:05:08;6.30;;;2.38;;
51814;SDS011;37874;53.158;6.766;2023-01-29T09:07:34;5.90;;;2.70;;
51814;SDS011;37874;53.158;6.766;2023-01-29T09:09:59;4.32;;;2.78;;
51814;SDS011;37874;53.158;6.766;2023-01-29T09:12:25;4.55;;;2.70;;
51814;SDS011;37874;53.158;6.766;2023-01-29T09:14:51;4.55;;;2.97;;
51814;SDS011;37874;53.158;6.766;2023-01-29T09:17:18;4.25;;;2.60;;
51814;SDS011;37874;53.158;6.766;2023-01-29T09:19:43;4.38;;;2.85;;
51814;SDS011;37874;53.158;6.766;2023-01-29T09:22:09;4.70;;;2.70;;
51814;SDS011;37874;53.158;6.766;2023-01-29T09:24:35;4.80;;;3.50;;
51814;SDS011;37874;53.158;6.766;2023-01-29T09:27:00;3.15;;;2.40;;
51814;SDS011;37874;53.158;6.766;2023-01-29T09:29:26;4.45;;;2.60;;
51814;SDS011;37874;53.158;6.766;2023-01-29T09:31:52;4.18;;;3.00;;
51814;SDS011;37874;53.158;6.766;2023-01-29T09:34:17;5.68;;;2.92;;
51814;SDS011;37874;53.158;6.766;2023-01-29T09:36:43;4.88;;;3.85;;
51814;SDS011;37874;53.158;6.766;2023-01-29T09:39:09;6.20;;;3.15;;
51814;SDS011;37874;53.158;6.766;2023-01-29T09:47:15;4.47;;;3.20;;
51814;SDS011;37874;53.158;6.766;2023-01-29T09:49:45;4.10;;;2.70;;
51814;SDS011;37874;53.158;6.766;2023-01-29T09:57:50;5.28;;;3.20;;
51814;SDS011;37874;53.158;6.766;2023-01-29T10:01:02;4.40;;;3.40;;
51814;SDS011;37874;53.158;6.766;2023-01-29T10:19:48;6.40;;;4.85;;
51814;SDS011;37874;53.158;6.766;2023-01-29T10:25:44;8.50;;;5.80;;
51814;SDS011;37874;53.158;6.766;2023-01-29T10:28:18;6.75;;;4.97;;
51814;SDS011;37874;53.158;6.766;2023-01-29T10:30:50;6.13;;;3.72;;
51814;SDS011;37874;53.158;6.766;2023-01-29T10:33:30;6.90;;;3.80;;
51814;SDS011;37874;53.158;6.766;2023-01-29T10:36:03;7.93;;;4.15;;
51814;SDS011;37874;53.158;6.766;2023-01-29T10:38:45;7.05;;;4.43;;
51814;SDS011;37874;53.158;6.766;2023-01-29T10:44:03;6.35;;;3.90;;
51814;SDS011;37874;53.158;6.766;2023-01-29T10:46:57;6.45;;;3.90;;
51814;SDS011;37874;53.158;6.766;2023-01-29T11:00:48;5.72;;;3.90;;
51814;SDS011;37874;53.158;6.766;2023-01-29T11:05:46;7.30;;;4.57;;
51814;SDS011;37874;53.158;6.766;2023-01-29T11:08:20;5.40;;;4.20;;
51814;SDS011;37874;53.158;6.766;2023-01-29T11:11:00;6.10;;;4.38;;
51814;SDS011;37874;53.158;6.766;2023-01-29T11:13:34;5.30;;;3.90;;
51814;SDS011;37874;53.158;6.766;2023-01-29T11:16:06;5.88;;;4.07;;
51814;SDS011;37874;53.158;6.766;2023-01-29T11:18:47;5.70;;;4.05;;
51814;SDS011;37874;53.158;6.766;2023-01-29T11:21:21;5.85;;;4.30;;
51814;SDS011;37874;53.158;6.766;2023-01-29T11:23:48;5.25;;;3.60;;
51814;SDS011;37874;53.158;6.766;2023-01-29T11:26:18;4.95;;;3.80;;
51814;SDS011;37874;53.158;6.766;2023-01-29T11:28:48;5.05;;;3.67;;
51814;SDS011;37874;53.158;6.766;2023-01-29T11:33:47;5.57;;;4.20;;
51814;SDS011;37874;53.158;6.766;2023-01-29T11:39:22;6.13;;;4.45;;
51814;SDS011;37874;53.158;6.766;2023-01-29T11:41:52;6.55;;;3.70;;
51814;SDS011;37874;53.158;6.766;2023-01-29T11:44:32;5.10;;;3.85;;
51814;SDS011;37874;53.158;6.766;2023-01-29T11:49:44;7.60;;;4.28;;
51814;SDS011;37874;53.158;6.766;2023-01-29T11:52:21;4.78;;;3.70;;
51814;SDS011;37874;53.158;6.766;2023-01-29T11:55:40;7.55;;;4.10;;
51814;SDS011;37874;53.158;6.766;2023-01-29T11:57:51;5.00;;;3.55;;
51814;SDS011;37874;53.158;6.766;2023-01-29T12:00:38;6.07;;;5.07;;
51814;SDS011;37874;53.158;6.766;2023-01-29T12:05:52;4.78;;;3.38;;
51814;SDS011;37874;53.158;6.766;2023-01-29T12:08:24;5.30;;;3.72;;
51814;SDS011;37874;53.158;6.766;2023-01-29T12:11:06;6.15;;;4.05;;
51814;SDS011;37874;53.158;6.766;2023-01-29T12:13:32;7.00;;;5.13;;
51814;SDS011;37874;53.158;6.766;2023-01-29T12:16:10;6.00;;;3.85;;
51814;SDS011;37874;53.158;6.766;2023-01-29T12:19:11;5.45;;;3.25;;
51814;SDS011;37874;53.158;6.766;2023-01-29T12:21:54;6.22;;;4.35;;
51814;SDS011;37874;53.158;6.766;2023-01-29T12:24:30;6.18;;;4.47;;
51814;SDS011;37874;53.158;6.766;2023-01-29T12:27:30;4.68;;;3.30;;
51814;SDS011;37874;53.158;6.766;2023-01-29T12:38:17;5.80;;;3.90;;
51814;SDS011;37874;53.158;6.766;2023-01-29T12:40:48;5.20;;;3.47;;
51814;SDS011;37874;53.158;6.766;2023-01-29T12:43:23;5.53;;;4.20;;
51814;SDS011;37874;53.158;6.766;2023-01-29T12:46:12;5.57;;;3.90;;
51814;SDS011;37874;53.158;6.766;2023-01-29T12:48:52;5.88;;;4.20;;
51814;SDS011;37874;53.158;6.766;2023-01-29T12:51:23;5.53;;;4.60;;
51814;SDS011;37874;53.158;6.766;2023-01-29T12:53:58;6.90;;;4.10;;
51814;SDS011;37874;53.158;6.766;2023-01-29T12:56:31;5.63;;;4.28;;
51814;SDS011;37874;53.158;6.766;2023-01-29T12:59:03;5.47;;;4.10;;
51814;SDS011;37874;53.158;6.766;2023-01-29T13:02:12;4.63;;;3.67;;
51814;SDS011;37874;53.158;6.766;2023-01-29T13:04:44;6.13;;;4.63;;
51814;SDS011;37874;53.158;6.766;2023-01-29T13:07:34;5.75;;;4.22;;
51814;SDS011;37874;53.158;6.766;2023-01-29T13:10:11;4.97;;;3.50;;
51814;SDS011;37874;53.158;6.766;2023-01-29T13:12:44;5.15;;;3.70;;
51814;SDS011;37874;53.158;6.766;2023-01-29T13:15:33;5.30;;;3.60;;
51814;SDS011;37874;53.158;6.766;2023-01-29T13:18:19;4.93;;;3.60;;
51814;SDS011;37874;53.158;6.766;2023-01-29T13:20:57;4.63;;;3.38;;
51814;SDS011;37874;53.158;6.766;2023-01-29T13:23:27;5.55;;;4.25;;
51814;SDS011;37874;53.158;6.766;2023-01-29T13:26:00;4.97;;;3.97;;
51814;SDS011;37874;53.158;6.766;2023-01-29T13:28:26;5.70;;;3.35;;
51814;SDS011;37874;53.158;6.766;2023-01-29T13:33:36;5.93;;;4.10;;
51814;SDS011;37874;53.158;6.766;2023-01-29T13:36:04;4.60;;;3.67;;
51814;SDS011;37874;53.158;6.766;2023-01-29T13:38:35;4.10;;;3.50;;
51814;SDS011;37874;53.158;6.766;2023-01-29T13:41:04;4.97;;;4.13;;
51814;SDS011;37874;53.158;6.766;2023-01-29T13:43:40;4.78;;;3.70;;
51814;SDS011;37874;53.158;6.766;2023-01-29T13:46:14;4.85;;;4.22;;
51814;SDS011;37874;53.158;6.766;2023-01-29T13:48:45;5.68;;;3.70;;
51814;SDS011;37874;53.158;6.766;2023-01-29T13:51:14;4.50;;;3.60;;
51814;SDS011;37874;53.158;6.766;2023-01-29T13:53:54;5.28;;;3.50;;
51814;SDS011;37874;53.158;6.766;2023-01-29T13:59:03;4.40;;;3.22;;
51814;SDS011;37874;53.158;6.766;2023-01-29T14:04:29;4.07;;;3.20;;
51814;SDS011;37874;53.158;6.766;2023-01-29T14:06:57;4.20;;;3.28;;
51814;SDS011;37874;53.158;6.766;2023-01-29T14:09:30;4.60;;;3.30;;
51814;SDS011;37874;53.158;6.766;2023-01-29T14:12:02;4.47;;;3.50;;
51814;SDS011;37874;53.158;6.766;2023-01-29T14:17:23;6.18;;;3.85;;
51814;SDS011;37874;53.158;6.766;2023-01-29T14:19:51;7.25;;;3.75;;
51814;SDS011;37874;53.158;6.766;2023-01-29T14:22:23;4.10;;;3.13;;
51814;SDS011;37874;53.158;6.766;2023-01-29T14:24:55;6.18;;;4.53;;
51814;SDS011;37874;53.158;6.766;2023-01-29T14:27:24;4.63;;;2.97;;
51814;SDS011;37874;53.158;6.766;2023-01-29T14:29:50;4.30;;;3.28;;
51814;SDS011;37874;53.158;6.766;2023-01-29T14:32:22;3.50;;;2.75;;
51814;SDS011;37874;53.158;6.766;2023-01-29T14:34:50;5.50;;;4.35;;
51814;SDS011;37874;53.158;6.766;2023-01-29T14:45:26;3.90;;;3.00;;
51814;SDS011;37874;53.158;6.766;2023-01-29T14:47:56;4.22;;;3.00;;
51814;SDS011;37874;53.158;6.766;2023-01-29T14:55:42;5.22;;;3.95;;
51814;SDS011;37874;53.158;6.766;2023-01-29T15:01:22;5.80;;;3.83;;
51814;SDS011;37874;53.158;6.766;2023-01-29T15:03:59;6.00;;;3.70;;
51814;SDS011;37874;53.158;6.766;2023-01-29T15:06:43;6.97;;;4.72;;
51814;SDS011;37874;53.158;6.766;2023-01-29T15:09:15;5.22;;;4.10;;
51814;SDS011;37874;53.158;6.766;2023-01-29T15:14:31;4.68;;;3.70;;
51814;SDS011;37874;53.158;6.766;2023-01-29T15:19:41;4.32;;;3.65;;
51814;SDS011;37874;53.158;6.766;2023-01-29T15:22:10;4.75;;;3.60;;
51814;SDS011;37874;53.158;6.766;2023-01-29T15:24:38;4.70;;;3.67;;
51814;SDS011;37874;53.158;6.766;2023-01-29T15:27:12;5.70;;;3.70;;
51814;SDS011;37874;53.158;6.766;2023-01-29T15:29:40;5.40;;;4.00;;
51814;SDS011;37874;53.158;6.766;2023-01-29T15:32:13;3.72;;;2.88;;
51814;SDS011;37874;53.158;6.766;2023-01-29T15:34:44;5.22;;;3.60;;
51814;SDS011;37874;53.158;6.766;2023-01-29T15:37:26;4.55;;;3.28;;
51814;SDS011;37874;53.158;6.766;2023-01-29T15:39:57;6.57;;;3.85;;
51814;SDS011;37874;53.158;6.766;2023-01-29T15:42:25;5.40;;;3.47;;
51814;SDS011;37874;53.158;6.766;2023-01-29T15:44:52;5.35;;;3.92;;
51814;SDS011;37874;53.158;6.766;2023-01-29T15:47:22;4.47;;;3.35;;
51814;SDS011;37874;53.158;6.766;2023-01-29T15:49:52;4.47;;;3.55;;
51814;SDS011;37874;53.158;6.766;2023-01-29T15:52:30;6.97;;;3.72;;
51814;SDS011;37874;53.158;6.766;2023-01-29T15:55:00;5.53;;;3.35;;
51814;SDS011;37874;53.158;6.766;2023-01-29T15:57:32;5.47;;;3.38;;
51814;SDS011;37874;53.158;6.766;2023-01-29T16:00:02;5.43;;;3.95;;
51814;SDS011;37874;53.158;6.766;2023-01-29T16:02:41;6.07;;;4.03;;
51814;SDS011;37874;53.158;6.766;2023-01-29T16:05:14;4.60;;;3.55;;
51814;SDS011;37874;53.158;6.766;2023-01-29T16:10:30;7.07;;;6.00;;
51814;SDS011;37874;53.158;6.766;2023-01-29T16:12:55;5.65;;;4.10;;
51814;SDS011;37874;53.158;6.766;2023-01-29T16:15:32;7.97;;;5.57;;
51814;SDS011;37874;53.158;6.766;2023-01-29T16:18:03;8.43;;;4.97;;
51814;SDS011;37874;53.158;6.766;2023-01-29T16:20:44;6.43;;;3.78;;
51814;SDS011;37874;53.158;6.766;2023-01-29T16:23:16;5.00;;;3.20;;
51814;SDS011;37874;53.158;6.766;2023-01-29T16:25:45;5.35;;;3.60;;
51814;SDS011;37874;53.158;6.766;2023-01-29T16:28:12;5.30;;;3.80;;
51814;SDS011;37874;53.158;6.766;2023-01-29T16:30:38;5.57;;;3.58;;
51814;SDS011;37874;53.158;6.766;2023-01-29T16:33:05;4.93;;;4.10;;
51814;SDS011;37874;53.158;6.766;2023-01-29T16:35:35;6.13;;;4.53;;
51814;SDS011;37874;53.158;6.766;2023-01-29T16:38:03;5.65;;;4.30;;
51814;SDS011;37874;53.158;6.766;2023-01-29T16:40:33;7.70;;;4.05;;
51814;SDS011;37874;53.158;6.766;2023-01-29T16:45:39;5.50;;;4.13;;
51814;SDS011;37874;53.158;6.766;2023-01-29T16:48:26;5.78;;;4.50;;
51814;SDS011;37874;53.158;6.766;2023-01-29T16:51:04;5.28;;;4.28;;
51814;SDS011;37874;53.158;6.766;2023-01-29T16:53:30;9.50;;;5.32;;
51814;SDS011;37874;53.158;6.766;2023-01-29T16:56:03;7.70;;;5.80;;
51814;SDS011;37874;53.158;6.766;2023-01-29T16:58:31;9.25;;;5.80;;
51814;SDS011;37874;53.158;6.766;2023-01-29T17:00:58;6.50;;;4.78;;
51814;SDS011;37874;53.158;6.766;2023-01-29T17:03:32;8.75;;;6.07;;
51814;SDS011;37874;53.158;6.766;2023-01-29T17:06:12;9.07;;;6.97;;
51814;SDS011;37874;53.158;6.766;2023-01-29T17:08:45;9.38;;;6.82;;
51814;SDS011;37874;53.158;6.766;2023-01-29T17:11:11;8.73;;;7.18;;
51814;SDS011;37874;53.158;6.766;2023-01-29T17:13:46;9.05;;;6.32;;
51814;SDS011;37874;53.158;6.766;2023-01-29T17:16:35;9.30;;;7.72;;
51814;SDS011;37874;53.158;6.766;2023-01-29T17:18:59;9.27;;;7.25;;
51814;SDS011;37874;53.158;6.766;2023-01-29T17:21:27;8.35;;;6.53;;
51814;SDS011;37874;53.158;6.766;2023-01-29T17:23:53;11.35;;;7.88;;
51814;SDS011;37874;53.158;6.766;2023-01-29T17:26:18;10.13;;;7.93;;
51814;SDS011;37874;53.158;6.766;2023-01-29T17:28:45;14.80;;;11.13;;
51814;SDS011;37874;53.158;6.766;2023-01-29T17:31:15;10.15;;;7.57;;
51814;SDS011;37874;53.158;6.766;2023-01-29T17:33:41;11.43;;;9.45;;
51814;SDS011;37874;53.158;6.766;2023-01-29T17:36:14;9.85;;;8.07;;
51814;SDS011;37874;53.158;6.766;2023-01-29T17:38:41;11.05;;;8.75;;